Terminal Aerodrome Forecast
Issued by NWS Mobile, AL

Home | Current Version | Previous Version | Text Only | Print | Product List | Glossary On
Versions: 1 2 3 4 5 6 7 8 9 10 11 12 13 14 15 16 17
000
FTUS44 KMOB 232300
TAFPNS
TAF
KPNS 232320Z 2400/2424 21010KT P6SM SKC
     FM240600 00000KT 4SM BR SKC
      TEMPO 2409/2412 1SM BR
     FM241300 12004KT P6SM FEW040 SCT250=

USA.gov is the U.S. government's official web portal to all federal, state and local government web resources and services.